createdAt,value
2018-07-06T00:00:56.954Z,4.27
2018-07-06T00:03:38.522Z,4.93
2018-07-06T00:06:19.595Z,5.23
2018-07-06T00:09:01.177Z,4.87
2018-07-06T00:11:43.162Z,4.10
2018-07-06T00:14:24.137Z,4.23
2018-07-06T00:17:05.911Z,6.17
2018-07-06T00:19:48.127Z,4.00
2018-07-06T00:22:30.302Z,5.73
2018-07-06T00:25:11.921Z,5.50
2018-07-06T00:27:53.094Z,5.27
2018-07-06T00:30:35.293Z,5.10
2018-07-06T00:33:17.399Z,5.40
2018-07-06T00:35:59.362Z,4.40
2018-07-06T00:38:40.248Z,7.33
2018-07-06T00:41:22.352Z,6.07
2018-07-06T00:44:04.862Z,4.90
2018-07-06T00:46:46.258Z,6.67
2018-07-06T00:49:27.306Z,5.20
2018-07-06T00:52:08.351Z,5.20
2018-07-06T00:54:49.777Z,6.27
2018-07-06T00:57:31.790Z,4.30
2018-07-06T01:00:13.218Z,4.20
2018-07-06T01:02:54.693Z,6.47
2018-07-06T01:05:36.066Z,5.97
2018-07-06T01:08:17.126Z,4.40
2018-07-06T01:10:58.779Z,8.30
2018-07-06T01:13:39.976Z,4.13
2018-07-06T01:16:21.858Z,5.77
2018-07-06T01:19:02.830Z,5.50
2018-07-06T01:21:43.781Z,5.70
2018-07-06T01:24:25.025Z,6.97
2018-07-06T01:27:07.962Z,4.47
2018-07-06T01:29:49.638Z,7.60
2018-07-06T01:32:31.614Z,8.73
2018-07-06T01:35:12.944Z,5.43
2018-07-06T01:37:54.108Z,7.40
2018-07-06T01:40:35.690Z,6.47
2018-07-06T01:43:18.618Z,10.13
2018-07-06T01:46:00.027Z,5.70
2018-07-06T01:48:41.871Z,7.40
2018-07-06T01:51:24.070Z,5.87
2018-07-06T01:54:05.792Z,5.07
2018-07-06T01:56:47.479Z,6.40
2018-07-06T01:59:28.943Z,6.67
2018-07-06T02:02:10.120Z,5.33
2018-07-06T02:04:51.806Z,5.60
2018-07-06T02:07:33.479Z,5.10
2018-07-06T02:10:14.656Z,5.67
2018-07-06T02:12:56.539Z,5.23
2018-07-06T02:15:38.858Z,8.07
2018-07-06T02:18:20.955Z,7.07
2018-07-06T02:21:01.999Z,5.70
2018-07-06T02:23:44.015Z,6.37
2018-07-06T02:26:24.878Z,6.67
2018-07-06T02:29:05.938Z,9.97
2018-07-06T02:31:47.520Z,6.70
2018-07-06T02:34:29.102Z,6.93
2018-07-06T02:37:10.579Z,8.93
2018-07-06T02:39:52.475Z,8.00
2018-07-06T02:42:35.289Z,6.17
2018-07-06T02:45:16.982Z,6.43
2018-07-06T02:47:58.056Z,5.93
2018-07-06T02:50:39.860Z,7.93
2018-07-06T02:53:20.801Z,10.33
2018-07-06T02:56:01.831Z,7.43
2018-07-06T02:58:43.639Z,6.93
2018-07-06T03:01:25.233Z,6.57
2018-07-06T03:04:06.807Z,8.27
2018-07-06T03:06:48.652Z,7.80
2018-07-06T03:09:30.292Z,6.10
2018-07-06T03:12:12.398Z,6.13
2018-07-06T03:14:54.175Z,6.40
2018-07-06T03:17:35.006Z,6.87
2018-07-06T03:20:16.919Z,7.47
2018-07-06T03:22:57.751Z,7.33
2018-07-06T03:25:38.806Z,6.80
2018-07-06T03:28:20.011Z,6.97
2018-07-06T03:31:01.452Z,7.90
2018-07-06T03:33:42.753Z,7.27
2018-07-06T03:36:24.439Z,10.07
2018-07-06T03:39:05.583Z,6.70
2018-07-06T03:41:46.349Z,7.20
2018-07-06T03:44:27.830Z,9.67
2018-07-06T03:47:08.887Z,7.80
2018-07-06T03:49:49.841Z,10.87
2018-07-06T03:52:30.796Z,6.30
2018-07-06T03:55:12.692Z,7.93
2018-07-06T03:57:54.371Z,10.60
2018-07-06T04:00:35.750Z,7.93
2018-07-06T04:03:16.601Z,9.20
2018-07-06T04:05:58.586Z,7.27
2018-07-06T04:08:40.378Z,8.70
2018-07-06T04:11:22.354Z,8.93
2018-07-06T04:14:04.391Z,7.47
2018-07-06T04:16:45.554Z,9.27
2018-07-06T04:19:27.618Z,7.27
2018-07-06T04:22:09.240Z,7.53
2018-07-06T04:24:50.926Z,10.50
2018-07-06T04:27:31.882Z,9.90
2018-07-06T04:30:13.464Z,7.77
2018-07-06T04:32:54.941Z,8.83
2018-07-06T04:35:30.046Z,8.77
2018-07-06T04:38:04.630Z,9.53
2018-07-06T04:40:45.966Z,11.13
2018-07-06T04:43:27.271Z,9.13
2018-07-06T04:46:07.727Z,11.27
2018-07-06T04:48:42.356Z,10.23
2018-07-06T04:51:23.838Z,11.13
2018-07-06T04:54:05.870Z,12.33
2018-07-06T04:56:46.998Z,9.47
2018-07-06T04:59:28.616Z,18.97
2018-07-06T05:02:09.989Z,12.67
2018-07-06T05:04:52.616Z,14.60
2018-07-06T05:07:28.779Z,14.03
2018-07-06T05:10:10.858Z,13.37
2018-07-06T05:12:52.138Z,13.63
2018-07-06T05:15:33.616Z,15.10
2018-07-06T05:18:15.511Z,15.13
2018-07-06T05:20:57.092Z,17.10
2018-07-06T05:23:38.710Z,15.40
2018-07-06T05:26:20.038Z,15.10
2018-07-06T05:29:01.629Z,16.80
2018-07-06T05:31:43.524Z,16.17
2018-07-06T05:34:25.382Z,13.87
2018-07-06T05:37:06.990Z,13.17
2018-07-06T05:39:48.990Z,16.30
2018-07-06T05:42:30.566Z,15.00
2018-07-06T05:45:11.747Z,14.03
2018-07-06T05:47:53.479Z,16.17
2018-07-06T05:50:35.408Z,23.20
2018-07-06T05:53:16.898Z,13.03
2018-07-06T05:55:58.076Z,13.60
2018-07-06T05:58:39.343Z,17.60
2018-07-06T06:01:20.925Z,13.17
2018-07-06T06:04:02.396Z,14.03
2018-07-06T06:06:43.873Z,16.27
2018-07-06T06:09:12.822Z,14.33
2018-07-06T06:11:43.087Z,19.17
2018-07-06T06:14:13.819Z,16.90
2018-07-06T06:16:43.014Z,18.87
2018-07-06T06:19:14.836Z,16.40
2018-07-06T06:21:44.329Z,18.53
2018-07-06T06:24:15.574Z,18.73
2018-07-06T06:26:45.503Z,16.83
2018-07-06T06:29:15.787Z,18.93
2018-07-06T06:31:45.640Z,16.30
2018-07-06T06:34:14.957Z,15.30
2018-07-06T06:36:46.047Z,21.53
2018-07-06T06:39:15.656Z,19.53
2018-07-06T06:41:45.801Z,22.07
2018-07-06T06:44:16.876Z,20.80
2018-07-06T06:46:46.602Z,20.03
2018-07-06T06:49:15.517Z,28.30
2018-07-06T06:51:45.639Z,27.57
2018-07-06T06:54:15.470Z,33.23
2018-07-06T06:56:44.966Z,28.37
2018-07-06T06:59:14.888Z,23.87
2018-07-06T07:01:44.012Z,21.37
2018-07-06T07:04:14.298Z,21.10
2018-07-06T07:06:44.183Z,18.50
2018-07-06T07:09:15.338Z,23.23
2018-07-06T07:11:45.518Z,19.90
2018-07-06T07:14:15.915Z,18.73
2018-07-06T07:16:45.019Z,16.70
2018-07-06T07:19:14.982Z,14.83
2018-07-06T07:21:45.524Z,18.13
2018-07-06T07:24:15.749Z,15.60
2018-07-06T07:26:45.836Z,22.50
2018-07-06T07:29:15.187Z,20.50
2018-07-06T07:31:45.798Z,19.20
2018-07-06T07:34:16.574Z,18.80
2018-07-06T07:36:47.238Z,17.47
2018-07-06T07:39:17.522Z,15.90
2018-07-06T07:41:47.250Z,17.10
2018-07-06T07:44:17.427Z,16.33
2018-07-06T07:46:47.642Z,17.37
2018-07-06T07:49:17.819Z,15.03
2018-07-06T07:52:02.596Z,16.03
2018-07-06T07:54:42.116Z,18.27
2018-07-06T07:57:13.122Z,20.63
2018-07-06T07:59:44.059Z,16.67
2018-07-06T08:02:14.207Z,22.63
2018-07-06T08:04:44.094Z,26.87
2018-07-06T08:07:14.149Z,19.07
2018-07-06T08:09:47.150Z,21.43
2018-07-06T08:12:18.278Z,17.80
2018-07-06T08:14:49.184Z,16.20
2018-07-06T08:17:19.681Z,15.33
2018-07-06T08:19:49.745Z,15.17
2018-07-06T08:22:19.987Z,15.27
2018-07-06T08:24:50.795Z,17.47
2018-07-06T08:27:21.610Z,17.43
2018-07-06T08:29:51.512Z,16.23
2018-07-06T08:32:21.246Z,13.67
2018-07-06T08:35:01.929Z,15.73
2018-07-06T08:37:44.474Z,16.30
2018-07-06T08:40:14.582Z,13.93
2018-07-06T08:42:51.726Z,16.17
2018-07-06T08:45:21.898Z,20.43
2018-07-06T08:47:53.755Z,16.90
2018-07-06T08:50:23.197Z,16.37
2018-07-06T08:52:53.699Z,14.97
2018-07-06T08:55:24.678Z,15.20
2018-07-06T08:57:55.542Z,14.57
2018-07-06T09:00:25.610Z,15.67
2018-07-06T09:02:55.441Z,18.13
2018-07-06T09:05:26.194Z,20.23
2018-07-06T09:07:56.118Z,18.63
2018-07-06T09:10:26.902Z,20.60
2018-07-06T09:12:56.837Z,16.13
2018-07-06T09:15:26.513Z,15.23
2018-07-06T09:17:56.059Z,14.97
2018-07-06T09:20:25.878Z,15.27
2018-07-06T09:22:55.745Z,15.87
2018-07-06T09:25:25.473Z,14.13
2018-07-06T09:27:55.303Z,14.70
2018-07-06T09:30:26.075Z,13.73
2018-07-06T09:32:57.878Z,16.00
2018-07-06T09:35:27.446Z,20.27
2018-07-06T09:37:58.006Z,15.33
2018-07-06T09:40:27.123Z,15.73
2018-07-06T09:42:57.498Z,17.67
2018-07-06T09:45:28.008Z,16.07
2018-07-06T09:47:57.819Z,14.13
2018-07-06T09:50:27.598Z,16.17
2018-07-06T09:52:58.038Z,15.00
2018-07-06T09:55:27.260Z,14.27
2018-07-06T09:57:58.020Z,16.00
2018-07-06T10:00:33.087Z,14.33
2018-07-06T10:03:04.554Z,19.73
2018-07-06T10:05:34.483Z,13.77
2018-07-06T10:08:05.727Z,16.57
2018-07-06T10:10:36.235Z,17.80
2018-07-06T10:13:07.368Z,15.10
2018-07-06T10:15:37.367Z,14.27
2018-07-06T10:18:07.787Z,16.90
2018-07-06T10:20:38.807Z,15.90
2018-07-06T10:23:08.407Z,16.07
2018-07-06T10:25:39.249Z,15.47
2018-07-06T10:28:19.942Z,15.07
2018-07-06T10:31:00.715Z,13.57
2018-07-06T10:33:31.386Z,14.23
2018-07-06T10:36:01.906Z,18.73
2018-07-06T10:38:31.114Z,13.30
2018-07-06T10:41:01.096Z,13.57
2018-07-06T10:43:32.326Z,12.20
2018-07-06T10:46:02.947Z,15.20
2018-07-06T10:48:32.915Z,13.70
2018-07-06T10:51:05.110Z,12.30
2018-07-06T10:53:35.546Z,14.43
2018-07-06T10:56:07.102Z,12.73
2018-07-06T10:58:36.878Z,11.73
2018-07-06T11:01:06.923Z,16.87
2018-07-06T11:03:37.054Z,13.17
2018-07-06T11:06:06.775Z,13.33
2018-07-06T11:08:36.814Z,15.37
2018-07-06T11:11:06.851Z,12.57
2018-07-06T11:13:36.974Z,10.20
2018-07-06T11:16:07.243Z,10.60
2018-07-06T11:18:36.826Z,12.13
2018-07-06T11:21:07.963Z,19.60
2018-07-06T11:23:38.319Z,13.77
2018-07-06T11:26:08.471Z,11.13
2018-07-06T11:28:38.834Z,8.83
2018-07-06T11:31:07.802Z,12.33
2018-07-06T11:33:38.467Z,9.60
2018-07-06T11:36:08.543Z,8.20
2018-07-06T11:38:38.445Z,9.53
2018-07-06T11:41:08.907Z,8.93
2018-07-06T11:43:39.435Z,8.17
2018-07-06T11:46:09.499Z,8.37
2018-07-06T11:48:38.694Z,11.40
2018-07-06T11:51:08.945Z,10.77
2018-07-06T11:53:38.653Z,10.80
2018-07-06T11:56:08.812Z,12.60
2018-07-06T11:58:40.071Z,8.50
2018-07-06T12:01:11.470Z,7.50
2018-07-06T12:03:41.083Z,9.53
2018-07-06T12:06:10.547Z,9.60
2018-07-06T12:08:41.192Z,8.87
2018-07-06T12:11:11.836Z,9.47
2018-07-06T12:13:42.896Z,8.10
2018-07-06T12:16:13.487Z,7.10
2018-07-06T12:18:44.706Z,7.43
2018-07-06T12:21:15.227Z,7.33
2018-07-06T12:23:45.051Z,7.93
2018-07-06T12:26:15.111Z,10.60
2018-07-06T12:28:45.178Z,8.87
2018-07-06T12:31:15.978Z,7.57
2018-07-06T12:33:46.163Z,8.40
2018-07-06T12:36:15.578Z,7.77
2018-07-06T12:38:45.886Z,10.63
2018-07-06T12:41:16.087Z,8.07
2018-07-06T12:43:46.971Z,7.17
2018-07-06T12:46:18.094Z,7.37
2018-07-06T12:48:47.683Z,6.70
2018-07-06T12:51:17.076Z,11.03
2018-07-06T12:53:47.031Z,6.73
2018-07-06T12:56:17.890Z,8.57
2018-07-06T12:58:47.248Z,8.27
2018-07-06T13:01:16.539Z,6.47
2018-07-06T13:03:46.789Z,7.07
2018-07-06T13:06:16.380Z,7.70
2018-07-06T13:08:45.333Z,7.90
2018-07-06T13:11:14.903Z,7.00
2018-07-06T13:13:45.509Z,7.67
2018-07-06T13:16:17.054Z,12.80
2018-07-06T13:18:47.039Z,6.53
2018-07-06T13:21:17.218Z,7.03
2018-07-06T13:23:46.328Z,6.07
2018-07-06T13:26:16.643Z,8.73
2018-07-06T13:28:46.987Z,6.47
2018-07-06T13:31:17.631Z,9.43
2018-07-06T13:33:47.766Z,7.17
2018-07-06T13:36:17.318Z,5.90
2018-07-06T13:38:48.651Z,7.20
2018-07-06T13:41:19.642Z,9.37
2018-07-06T13:43:49.811Z,6.57
2018-07-06T13:46:22.224Z,7.80
2018-07-06T13:48:52.698Z,6.97
2018-07-06T13:51:23.931Z,8.53
2018-07-06T13:53:55.242Z,7.10
2018-07-06T13:56:25.139Z,8.93
2018-07-06T13:58:55.080Z,10.30
2018-07-06T14:01:25.936Z,6.87
2018-07-06T14:03:56.943Z,8.20
2018-07-06T14:06:27.087Z,9.07
2018-07-06T14:08:56.782Z,6.73
2018-07-06T14:11:26.932Z,7.97
2018-07-06T14:13:58.810Z,7.13
2018-07-06T14:16:28.615Z,6.50
2018-07-06T14:18:58.014Z,8.10
2018-07-06T14:21:27.719Z,6.60
2018-07-06T14:23:57.186Z,7.33
2018-07-06T14:26:26.790Z,7.80
2018-07-06T14:28:56.695Z,11.53
2018-07-06T14:31:26.871Z,6.10
2018-07-06T14:33:57.114Z,5.17
2018-07-06T14:36:26.450Z,8.80
2018-07-06T14:38:56.942Z,7.23
2018-07-06T14:41:28.019Z,8.33
2018-07-06T14:43:58.390Z,5.87
2018-07-06T14:46:28.631Z,6.07
2018-07-06T14:48:59.351Z,6.57
2018-07-06T14:51:29.639Z,8.17
2018-07-06T14:53:59.906Z,7.63
2018-07-06T14:56:29.018Z,6.23
2018-07-06T14:58:58.551Z,8.77
2018-07-06T15:01:29.814Z,5.93
2018-07-06T15:04:01.891Z,5.73
2018-07-06T15:06:31.157Z,7.40
2018-07-06T15:09:00.662Z,10.63
2018-07-06T15:11:31.742Z,5.33
2018-07-06T15:14:01.715Z,18.13
2018-07-06T15:16:31.843Z,5.83
2018-07-06T15:19:03.616Z,5.67
2018-07-06T15:21:34.399Z,4.67
2018-07-06T15:24:03.930Z,5.17
2018-07-06T15:26:33.055Z,8.93
2018-07-06T15:29:03.982Z,8.50
2018-07-06T15:31:33.267Z,8.50
2018-07-06T15:34:02.602Z,9.97
2018-07-06T15:36:32.095Z,6.17
2018-07-06T15:39:01.959Z,5.83
2018-07-06T15:41:32.431Z,7.93
2018-07-06T15:44:03.691Z,7.30
2018-07-06T15:46:33.751Z,6.07
2018-07-06T15:49:03.231Z,6.00
2018-07-06T15:51:33.070Z,6.27
2018-07-06T15:54:02.855Z,7.80
2018-07-06T15:56:32.662Z,4.67
2018-07-06T15:59:02.273Z,4.30
2018-07-06T16:01:32.503Z,7.73
2018-07-06T16:04:02.652Z,4.90
2018-07-06T16:06:33.636Z,6.63
2018-07-06T16:09:04.063Z,4.03
2018-07-06T16:11:33.844Z,3.67
2018-07-06T16:14:03.388Z,6.37
2018-07-06T16:16:34.348Z,6.17
2018-07-06T16:19:04.156Z,7.33
2018-07-06T16:21:33.233Z,5.30
2018-07-06T16:24:03.086Z,7.63
2018-07-06T16:26:33.674Z,4.80
2018-07-06T16:29:03.979Z,6.37
2018-07-06T16:31:34.100Z,4.43
2018-07-06T16:34:04.307Z,5.50
2018-07-06T16:36:34.670Z,6.33
2018-07-06T16:39:04.758Z,7.83
2018-07-06T16:41:36.723Z,6.77
2018-07-06T16:44:06.677Z,5.80
2018-07-06T16:46:36.216Z,8.77
2018-07-06T16:49:06.126Z,7.93
2018-07-06T16:51:37.318Z,7.73
2018-07-06T16:54:06.955Z,5.13
2018-07-06T16:56:36.458Z,5.77
2018-07-06T16:59:06.566Z,5.87
2018-07-06T17:01:36.298Z,4.37
2018-07-06T17:04:06.478Z,5.50
2018-07-06T17:06:36.021Z,5.20
2018-07-06T17:09:06.662Z,6.50
2018-07-06T17:11:36.458Z,5.97
2018-07-06T17:14:07.210Z,7.47
2018-07-06T17:16:37.520Z,5.37
2018-07-06T17:19:07.187Z,8.40
2018-07-06T17:21:37.615Z,5.27
2018-07-06T17:24:08.058Z,9.07
2018-07-06T17:26:38.470Z,9.53
2018-07-06T17:29:08.274Z,6.23
2018-07-06T17:31:37.937Z,5.73
2018-07-06T17:34:08.971Z,7.63
2018-07-06T17:36:39.618Z,6.13
2018-07-06T17:39:09.098Z,5.33
2018-07-06T17:41:40.706Z,4.90
2018-07-06T17:44:09.961Z,6.43
2018-07-06T17:46:39.990Z,5.53
2018-07-06T17:49:11.830Z,9.43
2018-07-06T17:51:41.811Z,6.17
2018-07-06T17:54:12.042Z,6.30
2018-07-06T17:56:42.678Z,6.97
2018-07-06T17:59:12.626Z,6.73
2018-07-06T18:01:42.058Z,6.73
2018-07-06T18:04:12.359Z,5.87
2018-07-06T18:06:43.842Z,5.90
2018-07-06T18:09:14.252Z,4.53
2018-07-06T18:11:43.385Z,4.73
2018-07-06T18:14:14.021Z,6.33
2018-07-06T18:16:45.302Z,6.27
2018-07-06T18:19:15.617Z,5.00
2018-07-06T18:21:45.067Z,6.30
2018-07-06T18:24:15.839Z,7.50
2018-07-06T18:26:46.166Z,5.13
2018-07-06T18:29:18.024Z,4.77
2018-07-06T18:31:48.499Z,8.43
2018-07-06T18:34:18.655Z,3.40
2018-07-06T18:36:47.950Z,9.13
2018-07-06T18:39:18.597Z,5.47
2018-07-06T18:41:51.219Z,4.77
2018-07-06T18:44:21.518Z,6.13
2018-07-06T18:46:52.527Z,6.77
2018-07-06T18:49:22.624Z,6.73
2018-07-06T18:51:52.682Z,6.40
2018-07-06T18:54:22.978Z,4.53
2018-07-06T18:56:53.339Z,6.37
2018-07-06T18:59:23.270Z,4.90
2018-07-06T19:01:54.043Z,6.60
2018-07-06T19:04:24.002Z,5.30
2018-07-06T19:06:53.787Z,4.73
2018-07-06T19:09:24.839Z,5.63
2018-07-06T19:11:54.886Z,7.63
2018-07-06T19:14:25.902Z,6.73
2018-07-06T19:16:55.731Z,5.40
2018-07-06T19:19:25.786Z,5.87
2018-07-06T19:21:56.600Z,5.70
2018-07-06T19:24:26.790Z,7.53
2018-07-06T19:26:56.910Z,7.20
2018-07-06T19:29:27.112Z,6.63
2018-07-06T19:31:56.818Z,5.90
2018-07-06T19:34:27.075Z,4.73
2018-07-06T19:36:56.254Z,7.50
2018-07-06T19:39:25.726Z,6.60
2018-07-06T19:41:55.394Z,6.67
2018-07-06T19:44:25.074Z,5.17
2018-07-06T19:46:54.834Z,3.87
2018-07-06T19:49:24.282Z,5.73
2018-07-06T19:51:55.675Z,6.73
2018-07-06T19:54:26.570Z,10.87
2018-07-06T19:56:57.699Z,5.97
2018-07-06T19:59:27.574Z,6.70
2018-07-06T20:01:58.619Z,8.10
2018-07-06T20:04:28.494Z,7.10
2018-07-06T20:06:59.345Z,6.07
2018-07-06T20:09:29.275Z,10.37
2018-07-06T20:11:58.994Z,5.00
2018-07-06T20:14:28.844Z,5.00
2018-07-06T20:16:59.043Z,7.77
2018-07-06T20:19:29.674Z,10.03
2018-07-06T20:22:00.020Z,5.80
2018-07-06T20:24:30.245Z,5.60
2018-07-06T20:26:59.566Z,7.10
2018-07-06T20:29:29.523Z,6.47
2018-07-06T20:32:00.678Z,4.47
2018-07-06T20:34:30.986Z,5.83
2018-07-06T20:37:00.738Z,5.53
2018-07-06T20:39:31.495Z,7.70
2018-07-06T20:42:02.527Z,4.37
2018-07-06T20:44:32.281Z,6.03
2018-07-06T20:47:02.419Z,5.13
2018-07-06T20:49:32.349Z,6.57
2018-07-06T20:52:01.965Z,3.57
2018-07-06T20:54:32.374Z,5.63
2018-07-06T20:57:02.659Z,7.03
2018-07-06T20:59:33.938Z,6.03
2018-07-06T21:02:04.858Z,5.70
2018-07-06T21:04:34.309Z,7.07
2018-07-06T21:07:04.782Z,9.33
2018-07-06T21:09:34.399Z,4.97
2018-07-06T21:12:04.832Z,7.20
2018-07-06T21:14:34.742Z,7.60
2018-07-06T21:17:04.590Z,7.50
2018-07-06T21:19:35.958Z,4.93
2018-07-06T21:22:06.514Z,5.30
2018-07-06T21:24:37.633Z,6.70
2018-07-06T21:27:07.435Z,6.80
2018-07-06T21:29:38.646Z,4.67
2018-07-06T21:32:08.040Z,4.90
2018-07-06T21:34:37.986Z,6.37
2018-07-06T21:37:07.474Z,7.37
2018-07-06T21:39:37.329Z,5.13
2018-07-06T21:42:07.813Z,8.00
2018-07-06T21:44:37.685Z,8.97
2018-07-06T21:47:06.925Z,7.23
2018-07-06T21:49:37.459Z,6.53
2018-07-06T21:52:07.486Z,11.83
2018-07-06T21:54:36.975Z,4.63
2018-07-06T21:57:06.630Z,4.87
2018-07-06T21:59:36.262Z,6.83
2018-07-06T22:02:10.324Z,7.43
2018-07-06T22:04:40.566Z,5.47
2018-07-06T22:07:10.818Z,7.30
2018-07-06T22:09:41.595Z,5.77
2018-07-06T22:12:16.021Z,5.27
2018-07-06T22:14:46.051Z,11.50
2018-07-06T22:17:20.073Z,7.43
2018-07-06T22:19:49.919Z,7.17
2018-07-06T22:22:20.746Z,6.73
2018-07-06T22:24:50.755Z,10.83
2018-07-06T22:27:22.215Z,7.00
2018-07-06T22:29:52.203Z,5.20
2018-07-06T22:32:22.691Z,6.97
2018-07-06T22:34:53.114Z,5.63
2018-07-06T22:37:23.107Z,6.27
2018-07-06T22:39:53.200Z,5.13
2018-07-06T22:42:23.318Z,5.80
2018-07-06T22:44:53.747Z,7.00
2018-07-06T22:47:23.726Z,10.60
2018-07-06T22:49:54.375Z,5.20
2018-07-06T22:52:24.634Z,6.17
2018-07-06T22:54:54.542Z,5.93
2018-07-06T22:57:26.446Z,8.73
2018-07-06T22:59:57.459Z,6.83
2018-07-06T23:02:26.957Z,7.07
2018-07-06T23:04:57.050Z,5.87
2018-07-06T23:07:27.669Z,7.27
2018-07-06T23:09:57.012Z,4.87
2018-07-06T23:12:26.342Z,6.43
2018-07-06T23:14:55.831Z,8.53
2018-07-06T23:17:25.230Z,7.87
2018-07-06T23:19:54.789Z,6.03
2018-07-06T23:22:35.868Z,7.30
2018-07-06T23:25:05.790Z,5.80
2018-07-06T23:27:36.930Z,6.93
2018-07-06T23:30:06.790Z,6.30
2018-07-06T23:32:36.527Z,4.57
2018-07-06T23:35:06.602Z,8.17
2018-07-06T23:37:37.407Z,6.17
2018-07-06T23:40:07.370Z,7.27
2018-07-06T23:42:38.302Z,6.20
2018-07-06T23:45:08.891Z,6.40
2018-07-06T23:47:38.961Z,4.80
2018-07-06T23:50:09.682Z,6.30
2018-07-06T23:52:39.294Z,7.83
2018-07-06T23:55:08.506Z,5.57
2018-07-06T23:57:38.214Z,6.90
